Time;durP1;ratioP1;P1;durP2;ratioP2;P2;SDS_P1;SDS_P2;PMS_P1;PMS_P2;Temp;Humidity;BMP_temperature;BMP_pressure;BME280_temperature;BME280_humidity;BME280_pressure;Samples;Min_cycle;Max_cycle;Signal;HPM_P1;HPM_P2
2023/03/10 00:02:00;;;;;;;24.10;10.05;;;;;;;0.14;51.26;99282.88;5013951;28;20684;-74
2023/03/10 00:04:26;;;;;;;22.08;9.85;;;;;;;-0.04;51.79;99282.41;5016649;28;20033;-74
2023/03/10 00:06:51;;;;;;;20.27;10.10;;;;;;;0.10;51.64;99277.00;5015533;28;20469;-75
2023/03/10 00:09:17;;;;;;;22.42;10.57;;;;;;;0.05;51.82;99282.22;5019605;28;20464;-73
2023/03/10 00:11:42;;;;;;;20.08;9.38;;;;;;;0.06;52.11;99271.06;5015556;28;20037;-72
2023/03/10 00:14:08;;;;;;;16.42;9.18;;;;;;;0.01;52.00;99264.31;5022990;28;20053;-71
2023/03/10 00:16:33;;;;;;;20.45;9.77;;;;;;;-0.04;51.84;99256.72;5016213;28;20053;-71
2023/03/10 00:18:59;;;;;;;18.73;9.65;;;;;;;-0.02;52.25;99254.13;4987570;28;20142;-70
2023/03/10 00:21:28;;;;;;;19.23;9.80;;;;;;;-0.20;52.50;99242.53;5001275;28;20121;-71
2023/03/10 00:23:54;;;;;;;18.77;9.13;;;;;;;-0.01;52.04;99241.25;4990772;28;20128;-71
2023/03/10 00:26:21;;;;;;;16.58;8.25;;;;;;;-0.09;52.47;99242.31;4993447;28;20088;-71
2023/03/10 00:28:48;;;;;;;19.52;8.45;;;;;;;-0.30;52.99;99239.31;4976271;28;20046;-71
2023/03/10 00:31:17;;;;;;;19.92;8.98;;;;;;;0.01;52.29;99246.34;4986629;28;20087;-70
2023/03/10 00:33:42;;;;;;;16.55;8.65;;;;;;;-0.24;53.00;99236.59;4995556;28;20076;-70
2023/03/10 00:36:12;;;;;;;17.23;8.45;;;;;;;-0.27;52.90;99240.97;5004969;28;20034;-69
2023/03/10 00:38:37;;;;;;;17.50;8.88;;;;;;;-0.26;52.86;99232.38;4994702;28;20134;-71
2023/03/10 00:41:10;;;;;;;20.10;9.18;;;;;;;-0.28;52.96;99223.88;5003491;28;20034;-70
2023/03/10 00:43:35;;;;;;;20.42;9.48;;;;;;;-0.32;53.01;99217.97;4999337;28;20072;-70
2023/03/10 00:46:02;;;;;;;18.02;8.93;;;;;;;-0.24;52.73;99213.50;5001590;28;20227;-69
2023/03/10 00:48:28;;;;;;;16.48;8.63;;;;;;;-0.31;52.97;99205.97;5012933;28;20716;-69
2023/03/10 00:50:55;;;;;;;17.13;8.23;;;;;;;-0.32;53.18;99200.00;5015165;28;20040;-69
2023/03/10 00:53:20;;;;;;;16.90;8.10;;;;;;;-0.49;53.63;99191.81;5001625;28;20037;-68
2023/03/10 00:56:03;;;;;;;18.60;9.70;;;;;;;-0.37;53.50;99186.41;4994147;28;20212;-69
2023/03/10 00:58:28;;;;;;;;;;;;;;;-0.48;53.52;99184.09;5000885;28;20341;-71
2023/03/10 01:00:55;;;;;;;16.90;8.30;;;;;;;-0.39;53.90;99183.88;4995060;28;19978;-72
2023/03/10 01:03:21;;;;;;;18.50;8.27;;;;;;;-0.41;53.85;99175.38;5012770;28;20037;-70
2023/03/10 01:05:48;;;;;;;18.45;8.48;;;;;;;-0.24;53.27;99171.56;5021397;28;20325;-71
2023/03/10 01:08:14;;;;;;;16.60;8.52;;;;;;;-0.26;53.55;99158.78;5006838;28;20199;-70
2023/03/10 01:10:40;;;;;;;18.75;9.05;;;;;;;-0.21;53.01;99156.97;4995785;28;20540;-71
2023/03/10 01:13:06;;;;;;;15.15;8.20;;;;;;;-0.31;53.49;99150.34;4992674;28;20456;-71
2023/03/10 01:15:32;;;;;;;16.33;8.52;;;;;;;-0.33;53.81;99144.38;4994826;28;20036;-70
2023/03/10 01:18:01;;;;;;;17.00;8.77;;;;;;;-0.40;53.80;99140.28;4982762;28;20046;-72
2023/03/10 01:20:26;;;;;;;14.55;7.95;;;;;;;-0.37;54.30;99135.06;5001738;28;20029;-72
2023/03/10 01:22:51;;;;;;;17.88;8.45;;;;;;;-0.33;53.94;99131.53;4997935;28;20061;-72
2023/03/10 01:25:17;;;;;;;18.70;9.48;;;;;;;-0.26;53.68;99132.25;4985447;28;20037;-73
2023/03/10 01:27:42;;;;;;;18.80;8.95;;;;;;;-0.60;54.69;99128.72;4986155;28;20046;-72
2023/03/10 01:30:09;;;;;;;19.65;8.10;;;;;;;-0.37;54.19;99124.78;4997793;28;20465;-73
2023/03/10 01:32:36;;;;;;;16.45;7.35;;;;;;;-0.30;53.65;99113.53;5005346;28;20062;-72
2023/03/10 01:35:02;;;;;;;17.50;7.97;;;;;;;-0.26;53.43;99110.00;5007741;28;20040;-68
2023/03/10 01:37:27;;;;;;;17.15;7.80;;;;;;;-0.24;53.56;99105.66;5003451;28;20030;-67
2023/03/10 01:39:53;;;;;;;15.55;8.70;;;;;;;-0.14;53.27;99096.88;5001319;28;20040;-67
2023/03/10 01:42:18;;;;;;;19.85;9.45;;;;;;;-0.26;53.71;99092.03;5018619;28;20479;-65
2023/03/10 01:45:04;;;;;;;18.90;8.25;;;;;;;-0.35;53.49;99093.09;5016619;28;20087;-67
2023/03/10 01:47:29;;;;;;;15.30;7.15;;;;;;;-0.49;54.23;99094.28;5008218;28;20063;-68
2023/03/10 01:49:55;;;;;;;20.30;10.45;;;;;;;-0.37;54.02;99089.72;5015674;28;20033;-67
2023/03/10 01:52:24;;;;;;;16.92;6.90;;;;;;;-0.20;53.37;99093.59;5034083;28;20045;-69
2023/03/10 01:55:05;;;;;;;19.63;9.10;;;;;;;-0.40;53.56;99091.50;5020144;28;20076;-65
2023/03/10 01:57:36;;;;;;;19.23;8.50;;;;;;;-0.25;53.73;99088.56;5017880;28;20047;-67
2023/03/10 02:00:10;;;;;;;18.75;8.73;;;;;;;-0.27;53.60;99090.34;5017085;28;20024;-66
2023/03/10 02:02:53;;;;;;;18.02;8.55;;;;;;;-0.16;53.44;99087.50;5012271;28;20102;-68
2023/03/10 02:05:20;;;;;;;22.17;9.90;;;;;;;-0.00;52.94;99095.69;4998199;28;20613;-69
2023/03/10 02:07:47;;;;;;;17.98;8.88;;;;;;;0.11;52.69;99080.84;5007701;28;20053;-67
2023/03/10 02:10:14;;;;;;;19.33;9.73;;;;;;;-0.02;52.62;99080.28;5024760;28;20143;-65
2023/03/10 02:12:42;;;;;;;26.88;10.27;;;;;;;-0.08;52.89;99075.34;5021481;28;20164;-66
2023/03/10 02:15:08;;;;;;;22.67;11.52;;;;;;;-0.21;53.01;99077.34;5019269;28;20540;-65
2023/03/10 02:17:35;;;;;;;27.98;12.65;;;;;;;-0.42;53.66;99080.41;4999016;28;21799;-66
2023/03/10 02:20:23;;;;;;;27.88;11.45;;;;;;;-0.35;53.75;99071.69;5011020;28;20454;-68
2023/03/10 02:22:48;;;;;;;32.25;12.38;;;;;;;-0.28;53.46;99082.66;4998851;28;20049;-67
2023/03/10 02:25:30;;;;;;;31.40;12.88;;;;;;;-0.23;53.35;99071.41;4979420;28;20030;-68
2023/03/10 02:27:56;;;;;;;30.85;13.07;;;;;;;-0.31;52.93;99060.47;5011612;28;20124;-68
2023/03/10 02:30:35;;;;;;;36.63;14.45;;;;;;;-0.27;53.22;99061.25;5017023;28;20086;-69
2023/03/10 02:33:10;;;;;;;29.42;12.20;;;;;;;-0.18;53.00;99059.28;5024638;28;20118;-69
2023/03/10 02:35:36;;;;;;;39.20;16.13;;;;;;;-0.54;53.67;99057.63;5006549;28;20029;-70
2023/03/10 02:38:06;;;;;;;35.67;14.80;;;;;;;-0.14;53.01;99045.50;5001903;28;20417;-69
2023/03/10 02:40:50;;;;;;;41.88;18.00;;;;;;;-0.24;53.28;99049.16;5005366;28;20052;-68
2023/03/10 02:43:28;;;;;;;39.97;16.30;;;;;;;-0.14;52.90;99032.66;5000248;28;20038;-70
2023/03/10 02:46:14;;;;;;;44.25;17.75;;;;;;;-0.23;52.97;99034.63;4995375;28;20513;-69
2023/03/10 02:48:42;;;;;;;45.28;17.83;;;;;;;-0.26;53.05;99030.41;5002468;28;20053;-70
2023/03/10 02:51:35;;;;;;;39.03;16.87;;;;;;;0.06;52.44;99033.88;5003178;28;21379;-71
2023/03/10 02:54:09;;;;;;;39.78;16.30;;;;;;;-0.11;53.01;99023.19;5009744;28;20037;-71
2023/03/10 02:56:37;;;;;;;40.83;16.60;;;;;;;0.08;52.57;99029.56;4993329;28;20406;-72
2023/03/10 02:59:04;;;;;;;41.00;17.63;;;;;;;-0.09;52.94;99018.88;5020889;28;20063;-68
2023/03/10 03:01:32;;;;;;;48.75;20.25;;;;;;;0.08;52.48;99024.41;5021210;28;20055;-67
2023/03/10 03:03:59;;;;;;;44.65;18.33;;;;;;;-0.17;53.16;99012.22;5016972;28;20592;-69
2023/03/10 03:06:25;;;;;;;41.33;17.52;;;;;;;-0.32;53.46;99016.88;5013930;28;20045;-67
2023/03/10 03:08:51;;;;;;;38.95;16.38;;;;;;;-0.18;52.98;99013.06;5000681;28;20050;-68
2023/03/10 03:11:19;;;;;;;37.05;16.67;;;;;;;-0.14;52.81;99018.97;4992324;28;20406;-67
2023/03/10 03:13:45;;;;;;;43.10;17.27;;;;;;;-0.01;52.70;99016.94;5013662;28;20877;-66
2023/03/10 03:16:12;;;;;;;34.50;15.60;;;;;;;-0.24;52.86;99020.09;5019758;28;20058;-68
2023/03/10 03:18:38;;;;;;;34.80;15.63;;;;;;;-0.34;52.88;99016.91;5026958;28;20072;-68
2023/03/10 03:21:09;;;;;;;40.95;16.27;;;;;;;-0.44;53.24;99006.00;5016804;28;20033;-68
2023/03/10 03:23:35;;;;;;;31.38;14.52;;;;;;;-0.23;52.98;99009.78;4988866;28;20056;-71
2023/03/10 03:26:01;;;;;;;31.02;14.20;;;;;;;-0.34;53.19;99001.50;4995431;28;20083;-67
2023/03/10 03:28:27;;;;;;;32.20;14.18;;;;;;;-0.52;54.04;98994.28;4998490;28;20159;-70
2023/03/10 03:30:52;;;;;;;29.42;13.60;;;;;;;-0.63;54.33;99000.50;5017865;28;20092;-71
2023/03/10 03:33:18;;;;;;;30.45;14.63;;;;;;;-0.61;54.04;99003.03;4989786;28;20041;-70
2023/03/10 03:35:44;;;;;;;30.25;13.70;;;;;;;-0.53;54.05;99005.41;4995841;28;20526;-77
2023/03/10 03:38:11;;;;;;;27.10;11.68;;;;;;;-0.41;53.71;99002.56;4987291;28;20052;-75
2023/03/10 03:40:37;;;;;;;31.15;13.80;;;;;;;-0.22;52.80;99006.31;4985444;28;20140;-75
2023/03/10 03:43:04;;;;;;;26.00;11.27;;;;;;;-0.49;53.54;99009.59;5013125;28;20277;-77
2023/03/10 03:45:31;;;;;;;22.75;10.60;;;;;;;-0.45;53.59;99003.50;5007653;28;20033;-77
2023/03/10 03:47:58;;;;;;;18.80;10.07;;;;;;;-0.50;53.62;99013.88;5005778;28;20072;-72
2023/03/10 03:50:26;;;;;;;24.27;11.40;;;;;;;-0.45;53.29;99013.78;5024003;28;20029;-70
2023/03/10 03:52:54;;;;;;;27.08;11.57;;;;;;;-0.39;53.13;99008.50;5027149;28;20136;-69
2023/03/10 03:55:22;;;;;;;24.95;9.98;;;;;;;-0.50;53.26;99005.31;5021503;28;20025;-71
2023/03/10 03:57:50;;;;;;;23.02;10.63;;;;;;;-0.61;53.56;99003.88;5008825;28;20065;-71
2023/03/10 04:00:19;;;;;;;21.92;10.35;;;;;;;-0.62;53.61;99007.31;5016187;28;20851;-71
2023/03/10 04:02:47;;;;;;;;;;;;;;;-0.71;53.24;99001.56;5018774;28;20144;-70
2023/03/10 04:05:13;;;;;;;18.10;7.47;;;;;;;-0.29;52.61;99007.38;5021341;28;19931;-70
2023/03/10 04:07:40;;;;;;;25.02;10.68;;;;;;;-0.28;52.48;99006.50;4995163;28;20050;-71
2023/03/10 04:10:10;;;;;;;23.98;9.02;;;;;;;-0.23;52.79;98998.69;5009965;28;20034;-70
2023/03/10 04:12:35;;;;;;;21.25;10.25;;;;;;;-0.10;52.22;99006.88;4982013;28;20462;-69
2023/03/10 04:15:01;;;;;;;19.52;9.25;;;;;;;-0.19;52.16;99003.69;5004862;28;20025;-74
2023/03/10 04:17:27;;;;;;;21.30;8.88;;;;;;;-0.47;52.91;99000.13;4998662;28;20045;-68
2023/03/10 04:19:52;;;;;;;19.20;8.65;;;;;;;-0.41;52.16;98997.41;5004105;28;20797;-70
2023/03/10 04:22:18;;;;;;;22.20;9.45;;;;;;;-0.50;52.35;98998.50;5018434;28;20911;-70
2023/03/10 04:24:46;;;;;;;18.27;9.38;;;;;;;-0.61;52.66;98988.47;5020764;28;20034;-68
2023/03/10 04:27:11;;;;;;;17.15;8.27;;;;;;;-0.65;52.79;98992.00;5003225;28;20053;-68
2023/03/10 04:29:38;;;;;;;21.23;9.30;;;;;;;-0.47;52.21;98995.00;5020342;28;20620;-69
2023/03/10 04:32:04;;;;;;;16.83;8.13;;;;;;;-0.38;51.81;98989.63;5001006;28;20029;-69
2023/03/10 04:34:30;;;;;;;17.02;7.57;;;;;;;-0.61;52.26;98992.78;5021315;28;20075;-67
2023/03/10 04:36:56;;;;;;;15.10;7.05;;;;;;;-0.68;52.41;98994.66;5013006;28;20033;-67
2023/03/10 04:39:21;;;;;;;16.35;7.20;;;;;;;-0.94;52.90;98995.25;4995537;28;20637;-67
2023/03/10 04:41:47;;;;;;;20.27;9.52;;;;;;;-0.59;52.21;98994.41;5001671;28;20109;-78
2023/03/10 04:44:13;;;;;;;16.15;7.03;;;;;;;-0.43;51.77;98991.47;5003344;28;20043;-72
2023/03/10 04:46:39;;;;;;;19.55;9.45;;;;;;;-0.36;51.74;98987.88;4984625;28;20309;-73
2023/03/10 04:49:05;;;;;;;19.90;9.10;;;;;;;-0.33;51.64;98989.50;5003642;28;20070;-76
2023/03/10 04:51:31;;;;;;;20.10;8.23;;;;;;;-0.46;51.95;98986.41;5015084;28;20755;-75
2023/03/10 04:53:57;;;;;;;21.58;9.07;;;;;;;-0.16;51.32;98984.78;5000069;28;20038;-74
2023/03/10 04:56:26;;;;;;;18.67;8.95;;;;;;;0.06;51.02;98990.22;4984784;28;20412;-75
2023/03/10 04:58:51;;;;;;;21.73;9.65;;;;;;;0.01;50.92;98981.75;4999157;28;20103;-74
2023/03/10 05:01:17;;;;;;;20.70;8.95;;;;;;;-0.04;51.48;98976.75;5014758;28;20056;-75
2023/03/10 05:03:50;;;;;;;29.70;12.07;;;;;;;-0.16;51.75;98990.78;5016264;28;20055;-73
2023/03/10 05:06:19;;;;;;;30.58;11.48;;;;;;;-0.33;52.13;98977.50;5019617;28;20524;-72
2023/03/10 05:08:50;;;;;;;24.02;10.98;;;;;;;-0.31;52.02;98980.88;5019493;28;20045;-70
2023/03/10 05:11:18;;;;;;;24.10;10.07;;;;;;;-0.26;51.72;98981.63;5016243;28;20249;-70
2023/03/10 05:13:43;;;;;;;23.42;10.13;;;;;;;-0.33;51.96;98974.94;5018381;28;20056;-70
2023/03/10 05:16:14;;;;;;;25.30;11.45;;;;;;;-0.44;52.04;98984.66;5021145;28;20028;-70
2023/03/10 05:18:41;;;;;;;26.67;10.85;;;;;;;-0.59;52.54;98981.59;5026776;28;20305;-69
2023/03/10 05:21:07;;;;;;;31.23;11.50;;;;;;;-0.62;52.66;98991.06;5015069;28;20611;-69
2023/03/10 05:23:32;;;;;;;25.55;11.38;;;;;;;-0.65;52.94;98992.00;4987038;28;20057;-69
2023/03/10 05:26:02;;;;;;;21.83;10.45;;;;;;;-0.58;52.49;98978.13;4993851;28;20034;-69
2023/03/10 05:28:28;;;;;;;24.58;10.23;;;;;;;-0.68;52.72;98981.81;4980843;28;20053;-69
2023/03/10 05:30:54;;;;;;;25.40;9.88;;;;;;;-0.46;51.77;98981.28;4977072;28;20030;-69
2023/03/10 05:33:19;;;;;;;24.10;10.45;;;;;;;-0.46;52.18;98982.13;4996693;28;20118;-68
2023/03/10 05:35:45;;;;;;;23.92;9.70;;;;;;;-0.78;52.57;98991.44;4996050;28;20034;-71
2023/03/10 05:38:10;;;;;;;21.75;11.20;;;;;;;-0.70;52.42;98993.00;4996617;28;20064;-70
2023/03/10 05:40:36;;;;;;;24.77;11.60;;;;;;;-0.58;52.17;98988.41;4983832;28;20037;-70
2023/03/10 05:43:01;;;;;;;22.23;11.05;;;;;;;-0.65;52.22;98986.88;4999537;28;20046;-71
2023/03/10 05:45:28;;;;;;;22.67;10.02;;;;;;;-0.80;52.79;98982.09;4993515;28;20025;-70
2023/03/10 05:47:53;;;;;;;26.52;10.73;;;;;;;-0.63;52.25;98979.97;4992959;28;20033;-70
2023/03/10 05:50:19;;;;;;;26.70;11.18;;;;;;;-0.73;52.46;98982.78;5017500;28;20232;-71
2023/03/10 05:52:45;;;;;;;30.17;12.50;;;;;;;-0.70;52.46;98983.56;4996983;28;20052;-71
2023/03/10 05:55:14;;;;;;;29.10;11.20;;;;;;;-0.48;51.87;98983.91;5001814;28;20040;-70
2023/03/10 05:57:40;;;;;;;26.15;11.30;;;;;;;-0.47;51.80;98979.59;5009702;28;20038;-72
2023/03/10 06:00:09;;;;;;;26.00;11.55;;;;;;;-0.51;52.10;98993.38;4993983;28;20443;-72
2023/03/10 06:02:39;;;;;;;23.10;10.25;;;;;;;-0.44;51.63;98995.75;5003722;28;20053;-71
2023/03/10 06:05:07;;;;;;;28.33;10.65;;;;;;;-0.44;51.96;98994.91;5001538;28;20049;-72
2023/03/10 06:07:33;;;;;;;27.83;10.43;;;;;;;-0.54;51.77;99001.16;4993429;28;20269;-71
2023/03/10 06:09:58;;;;;;;20.92;10.45;;;;;;;-0.46;51.71;98999.25;5002200;28;20199;-71
2023/03/10 06:12:24;;;;;;;25.13;10.82;;;;;;;-0.49;51.91;99004.47;5002963;28;20052;-69
2023/03/10 06:14:49;;;;;;;23.27;11.27;;;;;;;-0.27;51.33;99013.31;4997990;28;20033;-69
2023/03/10 06:17:15;;;;;;;26.77;11.07;;;;;;;-0.36;51.87;99008.41;5000886;28;20037;-69
2023/03/10 06:19:40;;;;;;;23.30;10.23;;;;;;;-0.39;51.43;99003.38;5000264;28;20130;-73
2023/03/10 06:22:07;;;;;;;25.60;11.45;;;;;;;-0.48;51.96;99016.41;5000088;28;20033;-73
2023/03/10 06:24:33;;;;;;;25.17;11.45;;;;;;;-0.49;52.05;99014.72;4996385;28;20486;-71
2023/03/10 06:26:58;;;;;;;26.42;11.05;;;;;;;-0.32;51.40;99020.28;5004387;28;20029;-73
2023/03/10 06:29:24;;;;;;;20.40;10.98;;;;;;;-0.20;51.06;99012.28;5016298;28;20037;-72
2023/03/10 06:31:49;;;;;;;25.38;11.82;;;;;;;-0.30;51.59;99025.38;5032593;28;20040;-73
2023/03/10 06:34:15;;;;;;;26.48;10.25;;;;;;;-0.14;51.13;99022.38;5021263;28;20060;-70
2023/03/10 06:36:40;;;;;;;23.30;11.32;;;;;;;-0.18;51.32;99022.50;5017077;28;20781;-74
2023/03/10 06:39:06;;;;;;;25.95;10.80;;;;;;;-0.20;51.29;99027.69;5006008;28;20130;-79
2023/03/10 06:41:34;;;;;;;26.58;10.68;;;;;;;-0.30;51.92;99028.81;5005298;28;20043;-79
2023/03/10 06:43:59;;;;;;;26.33;12.95;;;;;;;-0.26;51.59;99038.13;5041562;28;20084;-79
2023/03/10 06:46:25;;;;;;;25.50;11.40;;;;;;;-0.40;51.45;99037.59;5016210;28;20160;-71
2023/03/10 06:48:50;;;;;;;28.70;11.77;;;;;;;-0.40;51.74;99042.72;5001783;28;20046;-76
2023/03/10 06:51:18;;;;;;;23.95;10.30;;;;;;;-0.22;51.35;99047.41;5001195;28;20064;-69
2023/03/10 06:53:44;;;;;;;20.02;9.18;;;;;;;-0.25;51.13;99047.50;4999166;28;20057;-74
2023/03/10 06:56:15;;;;;;;28.23;11.90;;;;;;;-0.44;51.70;99046.25;5001745;28;20037;-74
2023/03/10 06:58:41;;;;;;;26.40;10.32;;;;;;;-0.33;51.36;99049.41;5012851;28;20060;-75
2023/03/10 07:01:07;;;;;;;23.27;9.85;;;;;;;-0.32;51.63;99052.84;5018066;28;20029;-75
2023/03/10 07:03:34;;;;;;;28.00;10.27;;;;;;;-0.36;50.91;99050.31;5015944;28;20504;-74
2023/03/10 07:05:59;;;;;;;21.58;10.80;;;;;;;-0.56;51.74;99048.22;5023613;28;20037;-75
2023/03/10 07:08:28;;;;;;;22.58;10.85;;;;;;;-0.38;51.46;99041.81;5019061;28;20211;-71
2023/03/10 07:10:55;;;;;;;22.35;10.32;;;;;;;-0.29;50.93;99040.75;5016493;28;20037;-72
2023/03/10 07:13:20;;;;;;;27.33;11.52;;;;;;;-0.20;51.31;99047.38;5017764;28;20041;-71
2023/03/10 07:15:47;;;;;;;22.67;10.20;;;;;;;-0.26;51.55;99045.81;5006379;28;20087;-74
2023/03/10 07:18:13;;;;;;;22.00;9.73;;;;;;;-0.64;52.51;99049.28;5004006;28;20269;-75
2023/03/10 07:20:41;;;;;;;23.25;10.52;;;;;;;-0.48;52.18;99047.19;5009740;28;20033;-76
2023/03/10 07:23:07;;;;;;;24.38;10.82;;;;;;;-0.46;52.38;99056.56;5012400;28;20052;-74
2023/03/10 07:25:36;;;;;;;26.48;10.18;;;;;;;-0.55;52.85;99054.19;5017466;28;20037;-73
2023/03/10 07:28:03;;;;;;;27.35;10.90;;;;;;;-0.68;53.18;99053.66;5014895;28;20048;-75
2023/03/10 07:30:32;;;;;;;25.58;11.02;;;;;;;-0.78;53.67;99057.28;5022844;28;20051;-74
2023/03/10 07:32:58;;;;;;;24.42;10.63;;;;;;;-0.71;53.78;99052.88;5006343;28;20045;-73
2023/03/10 07:35:25;;;;;;;28.63;11.55;;;;;;;-0.90;53.72;99052.44;5014295;28;20021;-72
2023/03/10 07:37:50;;;;;;;26.00;11.00;;;;;;;-1.07;54.10;99057.91;5017348;28;20037;-74
2023/03/10 07:40:21;;;;;;;28.38;10.98;;;;;;;-1.05;54.58;99059.56;5016638;28;20032;-73
2023/03/10 07:42:47;;;;;;;27.05;11.55;;;;;;;-1.06;54.33;99052.78;5001335;28;20169;-74
2023/03/10 07:45:14;;;;;;;24.50;10.55;;;;;;;-1.07;54.51;99058.72;5002100;28;20037;-73
2023/03/10 07:47:39;;;;;;;24.77;10.05;;;;;;;-1.05;54.27;99054.44;5020612;28;20056;-74
2023/03/10 07:50:05;;;;;;;23.17;9.20;;;;;;;-0.77;53.94;99059.84;5031255;28;20089;-74
2023/03/10 07:52:31;;;;;;;19.60;8.93;;;;;;;-0.85;53.65;99056.59;5013493;28;20059;-73
2023/03/10 07:54:57;;;;;;;27.40;11.68;;;;;;;-1.04;54.45;99061.28;5017389;28;20251;-75
2023/03/10 07:57:23;;;;;;;22.38;10.75;;;;;;;-1.01;54.57;99052.69;5015108;28;20037;-66
2023/03/10 07:59:48;;;;;;;23.23;10.82;;;;;;;-0.95;54.39;99059.38;5013977;28;20777;-67
2023/03/10 08:02:14;;;;;;;23.98;11.20;;;;;;;-0.98;54.29;99066.25;5016234;28;20146;-66
2023/03/10 08:04:40;;;;;;;25.25;10.13;;;;;;;-1.17;55.19;99064.94;5000593;28;20037;-67
2023/03/10 08:07:07;;;;;;;25.55;11.20;;;;;;;-1.27;55.24;99064.28;5016008;28;20040;-70
2023/03/10 08:09:33;;;;;;;26.60;11.00;;;;;;;-1.10;54.95;99066.50;5014627;28;20025;-66
2023/03/10 08:12:00;;;;;;;29.00;11.43;;;;;;;-1.07;54.86;99066.44;5012591;28;20094;-66
2023/03/10 08:14:27;;;;;;;26.55;11.40;;;;;;;-0.98;54.34;99073.94;4994755;28;20495;-69
2023/03/10 08:16:55;;;;;;;24.23;11.60;;;;;;;-0.97;54.66;99073.09;5009551;28;20033;-67
2023/03/10 08:19:22;;;;;;;20.90;9.35;;;;;;;-0.94;54.31;99076.47;4994895;28;20143;-67
2023/03/10 08:21:47;;;;;;;25.90;11.45;;;;;;;-1.11;54.29;99081.91;4994540;28;20123;-69
2023/03/10 08:24:13;;;;;;;27.17;12.40;;;;;;;-1.08;54.77;99084.44;5020965;28;20291;-69
2023/03/10 08:26:39;;;;;;;23.95;11.00;;;;;;;-1.49;55.40;99089.47;5017395;28;20041;-70
2023/03/10 08:29:04;;;;;;;22.17;9.77;;;;;;;-1.32;55.24;99081.47;5016125;28;20041;-69
2023/03/10 08:31:30;;;;;;;23.35;10.35;;;;;;;-1.47;55.28;99082.59;5013163;28;20041;-68
2023/03/10 08:33:56;;;;;;;21.77;9.05;;;;;;;-1.37;55.07;99088.41;5017742;28;20052;-68
2023/03/10 08:36:25;;;;;;;26.00;9.52;;;;;;;-1.47;55.47;99095.41;5011496;28;20030;-68
2023/03/10 08:38:52;;;;;;;21.27;8.50;;;;;;;-0.98;54.32;99084.22;4996936;28;20045;-67
2023/03/10 08:41:28;;;;;;;23.23;9.93;;;;;;;-0.99;54.12;99090.22;4992260;28;20094;-69
2023/03/10 08:43:55;;;;;;;18.15;7.85;;;;;;;-1.24;55.21;99092.44;5010477;28;20139;-66
2023/03/10 08:46:23;;;;;;;21.67;9.70;;;;;;;-1.14;54.56;99093.06;5021262;28;20033;-66
2023/03/10 08:48:49;;;;;;;24.08;10.90;;;;;;;-0.94;54.15;99090.13;5019554;28;20880;-67
2023/03/10 08:51:15;;;;;;;22.17;10.23;;;;;;;-0.94;54.37;99094.44;5012204;28;20045;-67
2023/03/10 08:53:42;;;;;;;21.33;9.65;;;;;;;-0.94;54.28;99097.00;5011098;28;20303;-67
2023/03/10 08:56:08;;;;;;;24.13;10.68;;;;;;;-0.88;54.11;99099.44;5015522;28;20167;-66
2023/03/10 08:58:36;;;;;;;22.83;9.50;;;;;;;-1.09;54.95;99104.06;5007282;28;20124;-67
2023/03/10 09:01:01;;;;;;;20.15;9.35;;;;;;;-0.93;54.21;99104.63;5015482;28;20565;-67
2023/03/10 09:03:27;;;;;;;18.77;8.68;;;;;;;-0.95;54.44;99100.41;5011196;28;20051;-67
2023/03/10 09:05:54;;;;;;;25.85;11.25;;;;;;;-0.99;54.58;99095.34;5017921;28;20033;-69
2023/03/10 09:08:20;;;;;;;24.30;10.57;;;;;;;-0.98;54.94;99103.88;5007611;28;20045;-67
2023/03/10 09:10:46;;;;;;;30.13;10.80;;;;;;;-0.95;54.51;99106.41;4998860;28;20088;-66
2023/03/10 09:13:12;;;;;;;24.00;10.10;;;;;;;-1.01;54.85;99099.69;4982187;28;20046;-67
2023/03/10 09:15:40;;;;;;;27.50;12.45;;;;;;;-0.75;54.41;99111.09;4986223;28;20861;-67
2023/03/10 09:18:07;;;;;;;20.88;9.25;;;;;;;-0.58;53.75;99116.69;4997642;28;20395;-66
2023/03/10 09:20:34;;;;;;;19.88;9.05;;;;;;;-0.59;53.56;99117.59;5005351;28;20048;-69
2023/03/10 09:22:59;;;;;;;23.83;9.77;;;;;;;-0.51;53.88;99119.13;5007768;28;20045;-67
2023/03/10 09:25:24;;;;;;;24.48;10.00;;;;;;;-0.59;53.57;99120.16;5010661;28;20415;-67
2023/03/10 09:27:50;;;;;;;31.95;11.20;;;;;;;-0.61;53.69;99121.91;4999339;28;20112;-66
2023/03/10 09:30:16;;;;;;;22.23;9.98;;;;;;;-0.79;54.07;99128.28;4985239;28;20311;-68
2023/03/10 09:32:43;;;;;;;26.92;10.82;;;;;;;-0.69;53.67;99126.34;4992391;28;20577;-66
2023/03/10 09:35:10;;;;;;;19.20;8.68;;;;;;;-0.76;54.29;99127.38;5010085;28;20029;-67
2023/03/10 09:37:36;;;;;;;21.95;8.80;;;;;;;-1.01;54.93;99122.75;5019634;28;20597;-67
2023/03/10 09:40:04;;;;;;;27.38;10.45;;;;;;;-0.81;54.85;99117.22;5008998;28;20034;-68
2023/03/10 09:42:33;;;;;;;23.92;10.45;;;;;;;-0.52;54.15;99118.31;5006935;28;20045;-65
2023/03/10 09:45:24;;;;;;;24.40;9.68;;;;;;;-0.77;54.32;99112.88;5018149;28;20061;-67
2023/03/10 09:48:01;;;;;;;24.05;10.57;;;;;;;-0.94;54.83;99122.63;5013559;28;20389;-66
2023/03/10 09:50:44;;;;;;;20.75;9.40;;;;;;;-1.31;55.94;99123.31;5028430;28;20331;-66
2023/03/10 09:53:28;;;;;;;23.95;9.15;;;;;;;-1.09;55.73;99129.72;5014790;28;20049;-67
2023/03/10 09:55:53;;;;;;;26.63;9.82;;;;;;;-1.28;56.30;99133.53;5028543;28;20033;-66
2023/03/10 09:58:24;;;;;;;22.50;8.80;;;;;;;-0.95;55.85;99138.88;5003249;28;20069;-65
2023/03/10 10:00:50;;;;;;;16.98;7.32;;;;;;;-0.89;55.45;99146.47;4994998;28;20551;-66
2023/03/10 10:03:21;;;;;;;21.63;10.80;;;;;;;-0.79;55.43;99147.97;4976179;28;20038;-65
2023/03/10 10:05:51;;;;;;;22.10;9.15;;;;;;;-0.82;55.21;99148.00;4995438;28;20506;-68
2023/03/10 10:08:25;;;;;;;26.83;10.77;;;;;;;-0.78;55.02;99147.91;4994220;28;20137;-68
2023/03/10 10:10:54;;;;;;;26.50;10.27;;;;;;;-0.79;55.32;99146.25;4994979;28;20037;-67
2023/03/10 10:13:22;;;;;;;26.58;10.15;;;;;;;-0.63;54.79;99144.19;4991719;28;20041;-69
2023/03/10 10:16:07;;;;;;;20.50;9.15;;;;;;;-0.44;54.58;99138.66;4996148;28;20501;-67
2023/03/10 10:18:38;;;;;;;24.38;10.48;;;;;;;-0.53;54.80;99138.84;5011283;28;20044;-67
2023/03/10 10:21:29;;;;;;;25.63;10.93;;;;;;;-0.69;55.05;99144.31;5016717;28;20387;-69
2023/03/10 10:23:54;;;;;;;21.40;10.32;;;;;;;-0.76;54.67;99145.34;5013440;28;20135;-66
2023/03/10 10:26:25;;;;;;;30.00;10.85;;;;;;;-0.64;54.46;99145.09;5012555;28;20562;-69
2023/03/10 10:28:55;;;;;;;24.77;9.75;;;;;;;-0.58;54.40;99144.94;5014236;28;20472;-69
2023/03/10 10:31:24;;;;;;;22.35;10.48;;;;;;;-0.80;55.16;99157.38;5013087;28;20037;-68
2023/03/10 10:33:52;;;;;;;24.58;10.73;;;;;;;-0.68;54.67;99158.84;5014883;28;20709;-68
2023/03/10 10:36:18;;;;;;;22.35;9.40;;;;;;;-0.66;54.67;99154.53;5011841;28;20056;-67
2023/03/10 10:38:49;;;;;;;19.63;9.60;;;;;;;-0.57;54.73;99159.47;4996643;28;20522;-68
2023/03/10 10:41:20;;;;;;;25.50;10.02;;;;;;;-0.63;54.86;99162.16;4992907;28;20238;-67
2023/03/10 10:43:47;;;;;;;22.17;10.00;;;;;;;-0.65;54.56;99161.34;5008790;28;20049;-66
2023/03/10 10:46:21;;;;;;;18.88;8.60;;;;;;;-0.53;54.62;99169.66;4992100;28;20467;-68
2023/03/10 10:48:50;;;;;;;22.80;10.70;;;;;;;-0.51;54.67;99175.59;5005663;28;20131;-68
2023/03/10 10:51:27;;;;;;;26.30;9.43;;;;;;;-0.44;54.29;99178.00;5000471;28;20089;-67
2023/03/10 10:53:56;;;;;;;20.88;9.05;;;;;;;-0.79;55.34;99174.47;5007349;28;20056;-66
2023/03/10 10:56:23;;;;;;;19.38;9.63;;;;;;;-0.63;55.25;99172.41;5009905;28;20025;-68
2023/03/10 10:59:27;;;;;;;17.80;8.82;;;;;;;-0.48;54.75;99168.69;4991644;28;20310;-68
2023/03/10 11:01:55;;;;;;;18.30;8.55;;;;;;;-0.38;54.55;99159.06;4986872;28;20038;-67
2023/03/10 11:04:21;;;;;;;22.23;9.27;;;;;;;-0.37;54.64;99160.72;4980561;28;20040;-68
2023/03/10 11:06:48;;;;;;;19.40;9.23;;;;;;;-0.20;54.27;99161.19;4988947;28;20099;-68
2023/03/10 11:09:23;;;;;;;20.95;9.48;;;;;;;-0.20;54.18;99158.63;5011415;28;20079;-66
2023/03/10 11:11:48;;;;;;;18.27;9.30;;;;;;;-0.20;54.26;99158.63;5007349;28;20095;-67
2023/03/10 11:14:34;;;;;;;19.73;9.57;;;;;;;-0.27;54.19;99164.78;5006689;28;20305;-68
2023/03/10 11:17:07;;;;;;;20.55;9.65;;;;;;;-0.34;54.54;99160.69;4990857;28;20029;-66
2023/03/10 11:19:41;;;;;;;20.95;8.43;;;;;;;0.07;53.58;99166.56;5012941;28;20723;-66
2023/03/10 11:22:19;;;;;;;21.15;10.00;;;;;;;-0.31;54.18;99173.44;5010683;28;20658;-67
2023/03/10 11:24:53;;;;;;;23.17;9.85;;;;;;;-0.23;53.66;99163.84;4988497;28;20042;-67
2023/03/10 11:27:35;;;;;;;19.27;9.38;;;;;;;-0.18;54.25;99171.44;4991796;28;20057;-67